createdAt,value
2023-03-05T00:00:48.207Z,86.91
2023-03-05T00:03:14.811Z,87.93
2023-03-05T00:05:41.375Z,88.12
2023-03-05T00:08:08.060Z,90.75
2023-03-05T00:10:37.002Z,91.37
2023-03-05T00:13:03.544Z,92.97
2023-03-05T00:15:30.353Z,92.77
2023-03-05T00:18:00.253Z,91.78
2023-03-05T00:20:27.144Z,92.32
2023-03-05T00:23:02.690Z,94.91
2023-03-05T00:25:29.777Z,94.29
2023-03-05T00:27:56.270Z,94.96
2023-03-05T00:30:22.731Z,96.60
2023-03-05T00:32:49.297Z,95.85
2023-03-05T00:35:15.769Z,95.37
2023-03-05T00:37:42.251Z,96.55
2023-03-05T00:40:18.298Z,96.41
2023-03-05T00:42:58.052Z,97.03
2023-03-05T00:45:25.194Z,96.16
2023-03-05T00:47:51.701Z,96.41
2023-03-05T00:50:18.261Z,95.51
2023-03-05T00:52:44.810Z,95.61
2023-03-05T00:55:11.526Z,95.14
2023-03-05T00:57:38.528Z,94.91
2023-03-05T01:00:11.362Z,94.75
2023-03-05T01:02:38.164Z,94.89
2023-03-05T01:05:05.031Z,94.31
2023-03-05T01:07:31.683Z,93.21
2023-03-05T01:09:58.329Z,92.69
2023-03-05T01:12:26.027Z,92.46
2023-03-05T01:14:52.601Z,91.37
2023-03-05T01:17:19.094Z,91.92
2023-03-05T01:19:45.569Z,90.39
2023-03-05T01:22:12.059Z,89.09
2023-03-05T01:24:38.512Z,89.02
2023-03-05T01:27:05.152Z,88.59
2023-03-05T01:29:31.592Z,86.69
2023-03-05T01:31:58.111Z,87.02
2023-03-05T01:34:24.529Z,86.63
2023-03-05T01:36:51.454Z,85.80
2023-03-05T01:39:18.014Z,83.37
2023-03-05T01:41:44.616Z,84.58
2023-03-05T01:44:30.263Z,82.04
2023-03-05T01:46:59.342Z,82.09
2023-03-05T01:49:32.858Z,80.54
2023-03-05T01:52:20.226Z,80.16
2023-03-05T01:54:54.218Z,79.40
2023-03-05T01:57:34.436Z,79.87
2023-03-05T02:00:43.447Z,79.34
2023-03-05T02:03:16.481Z,78.58
2023-03-05T02:05:58.345Z,79.12
2023-03-05T02:13:03.300Z,78.45
2023-03-05T02:15:31.625Z,78.04
2023-03-05T02:17:58.337Z,79.80
2023-03-05T02:20:30.557Z,78.50
2023-03-05T02:23:16.976Z,77.15
2023-03-05T02:26:06.568Z,76.29
2023-03-05T02:28:55.598Z,79.23
2023-03-05T02:31:40.106Z,77.69
2023-03-05T02:34:10.420Z,76.27
2023-03-05T02:36:37.057Z,75.40
2023-03-05T02:39:03.927Z,75.76
2023-03-05T02:41:30.570Z,77.13
2023-03-05T02:43:58.229Z,77.65
2023-03-05T02:46:28.045Z,77.45
2023-03-05T02:48:54.665Z,76.50
2023-03-05T02:51:26.161Z,74.66
2023-03-05T02:54:07.156Z,76.90
2023-03-05T02:56:34.381Z,76.96
2023-03-05T02:59:00.855Z,77.47
2023-03-05T03:01:31.596Z,76.15
2023-03-05T03:04:00.330Z,75.49
2023-03-05T03:06:27.129Z,75.78
2023-03-05T03:08:53.622Z,77.55
2023-03-05T03:11:21.602Z,76.54
2023-03-05T03:13:48.127Z,74.90
2023-03-05T03:16:16.075Z,78.25
2023-03-05T03:18:44.076Z,78.03
2023-03-05T03:24:10.943Z,75.45
2023-03-05T03:26:44.700Z,75.01
2023-03-05T03:29:11.457Z,77.88
2023-03-05T03:31:44.143Z,75.42
2023-03-05T03:34:24.917Z,76.07
2023-03-05T03:40:50.784Z,77.22
2023-03-05T03:43:17.274Z,76.08
2023-03-05T03:45:46.420Z,76.47
2023-03-05T03:48:53.310Z,76.17
2023-03-05T03:56:02.507Z,80.22
2023-03-05T03:58:29.885Z,78.36
2023-03-05T04:00:58.092Z,78.66
2023-03-05T04:03:24.724Z,79.71
2023-03-05T04:05:51.561Z,79.58
2023-03-05T04:08:35.777Z,80.03
2023-03-05T04:11:10.249Z,81.11
2023-03-05T04:13:36.868Z,80.81
2023-03-05T04:16:12.643Z,82.19
2023-03-05T04:18:39.441Z,83.56
2023-03-05T04:21:06.007Z,81.41
2023-03-05T04:23:32.763Z,82.22
2023-03-05T04:25:59.591Z,81.44
2023-03-05T04:31:27.793Z,82.86
2023-03-05T04:38:38.418Z,82.64
2023-03-05T04:41:05.217Z,84.04
2023-03-05T04:43:37.809Z,83.29
2023-03-05T04:46:05.078Z,85.05
2023-03-05T04:48:34.429Z,83.87
2023-03-05T04:51:17.963Z,83.46
2023-03-05T04:54:26.259Z,84.20
2023-03-05T04:56:57.576Z,83.37
2023-03-05T04:59:28.847Z,84.42
2023-03-05T05:02:01.464Z,84.60
2023-03-05T05:04:53.272Z,83.70
2023-03-05T05:07:22.563Z,84.75
2023-03-05T05:09:55.175Z,84.82
2023-03-05T05:15:37.887Z,85.91
2023-03-05T05:18:08.495Z,84.97
2023-03-05T05:24:43.889Z,86.28
2023-03-05T05:27:13.699Z,85.74
2023-03-05T05:30:10.735Z,87.29
2023-03-05T05:32:57.905Z,86.97
2023-03-05T05:40:08.530Z,86.56
2023-03-05T05:42:35.878Z,86.55
2023-03-05T05:45:12.715Z,87.42
2023-03-05T05:47:39.555Z,86.95
2023-03-05T05:50:17.363Z,86.40
2023-03-05T05:52:51.264Z,86.00
2023-03-05T05:55:18.398Z,86.66
2023-03-05T05:57:45.032Z,87.54
2023-03-05T06:00:12.921Z,87.21
2023-03-05T06:02:46.455Z,88.45
2023-03-05T06:05:24.148Z,87.71
2023-03-05T06:11:21.362Z,88.12
2023-03-05T06:20:39.674Z,88.56
2023-03-05T06:23:08.915Z,88.54
2023-03-05T06:30:13.942Z,87.08
2023-03-05T06:32:40.795Z,89.32
2023-03-05T06:35:08.028Z,88.46
2023-03-05T06:37:34.620Z,87.86
2023-03-05T06:40:01.224Z,86.85
2023-03-05T06:45:47.165Z,86.35
2023-03-05T06:48:15.653Z,87.60
2023-03-05T06:50:53.128Z,85.66
2023-03-05T07:01:15.033Z,86.07
2023-03-05T07:07:41.970Z,84.06
2023-03-05T07:10:15.971Z,83.24
2023-03-05T07:21:03.580Z,81.67
2023-03-05T07:49:22.383Z,79.19
2023-03-05T07:51:51.623Z,78.55
2023-03-05T07:54:18.235Z,78.23
2023-03-05T07:56:44.907Z,78.00
2023-03-05T08:02:33.528Z,77.53
2023-03-05T08:08:16.714Z,75.83
2023-03-05T08:10:53.196Z,76.65
2023-03-05T08:25:33.737Z,76.01
2023-03-05T08:28:09.393Z,75.25
2023-03-05T08:38:26.933Z,73.95
2023-03-05T08:54:11.920Z,70.63
2023-03-05T08:56:38.463Z,73.84
2023-03-05T08:59:05.787Z,68.39
2023-03-05T09:05:14.734Z,67.55
2023-03-05T09:07:41.829Z,66.20
2023-03-05T09:22:33.896Z,65.71
2023-03-05T09:32:12.795Z,66.18
2023-03-05T09:34:42.586Z,64.58
2023-03-05T09:37:10.940Z,66.62
2023-03-05T09:39:40.516Z,66.89
2023-03-05T09:42:13.145Z,69.56
2023-03-05T09:44:58.337Z,70.95
2023-03-05T09:47:30.905Z,69.47
2023-03-05T09:50:06.376Z,67.88
2023-03-05T09:53:12.307Z,67.65
2023-03-05T09:59:25.154Z,64.96
2023-03-05T10:01:53.674Z,63.54
2023-03-05T10:04:40.428Z,64.79
2023-03-05T10:07:14.780Z,64.02
2023-03-05T10:17:46.296Z,64.10
2023-03-05T10:20:41.792Z,62.69
2023-03-05T10:23:08.164Z,60.96
2023-03-05T10:26:08.788Z,62.07
2023-03-05T10:32:50.988Z,63.74
2023-03-05T10:35:41.097Z,63.27
2023-03-05T10:38:32.258Z,62.97
2023-03-05T10:44:47.738Z,65.97
2023-03-05T10:47:30.788Z,64.47
2023-03-05T10:49:59.412Z,65.68
2023-03-05T10:52:48.195Z,64.62
2023-03-05T11:02:09.238Z,62.86
2023-03-05T11:04:41.392Z,61.75
2023-03-05T11:07:32.671Z,60.59
2023-03-05T11:10:16.851Z,62.32
2023-03-05T11:12:47.811Z,64.37
2023-03-05T11:15:14.630Z,64.43
2023-03-05T11:17:44.884Z,64.32
2023-03-05T11:20:30.058Z,68.40
2023-03-05T11:23:06.027Z,65.98
2023-03-05T11:26:05.766Z,67.03
2023-03-05T11:28:51.987Z,68.76
2023-03-05T11:31:31.202Z,68.83
2023-03-05T11:34:53.063Z,69.16
2023-03-05T11:37:46.203Z,69.32
2023-03-05T11:40:30.293Z,69.20
2023-03-05T11:43:00.717Z,65.72
2023-03-05T11:45:37.363Z,66.70
2023-03-05T11:48:37.017Z,64.92
2023-03-05T11:51:19.644Z,66.49
2023-03-05T11:53:55.775Z,64.40
2023-03-05T11:56:34.566Z,63.81
2023-03-05T11:59:29.826Z,64.03
2023-03-05T12:01:57.839Z,65.54
2023-03-05T12:04:24.672Z,64.08
2023-03-05T12:06:55.114Z,63.15
2023-03-05T12:09:27.829Z,63.21
2023-03-05T12:12:05.135Z,64.49
2023-03-05T12:15:01.116Z,63.70
2023-03-05T12:18:17.805Z,64.49
2023-03-05T12:20:55.711Z,64.11
2023-03-05T12:23:23.234Z,64.37
2023-03-05T12:25:57.183Z,65.55
2023-03-05T12:28:36.769Z,65.64
2023-03-05T12:31:25.756Z,66.35
2023-03-05T12:33:52.416Z,68.35
2023-03-05T12:36:21.837Z,66.59
2023-03-05T12:38:52.488Z,65.33
2023-03-05T12:41:30.543Z,64.75
2023-03-05T12:44:07.282Z,65.79
2023-03-05T12:46:39.097Z,66.78
2023-03-05T12:49:20.754Z,63.89
2023-03-05T12:51:50.143Z,63.47
2023-03-05T12:54:27.085Z,63.56
2023-03-05T12:56:56.045Z,63.33
2023-03-05T12:59:27.952Z,61.86
2023-03-05T13:02:03.078Z,62.06
2023-03-05T13:04:32.400Z,62.94
2023-03-05T13:07:07.613Z,57.97
2023-03-05T13:09:36.742Z,58.15
2023-03-05T13:12:11.676Z,56.70
2023-03-05T13:14:42.504Z,57.80
2023-03-05T13:17:47.275Z,55.44
2023-03-05T13:20:38.647Z,56.29
2023-03-05T13:23:08.029Z,55.53
2023-03-05T13:25:34.706Z,56.85
2023-03-05T13:28:04.914Z,61.56
2023-03-05T13:30:33.613Z,58.58
2023-03-05T13:33:04.016Z,55.83
2023-03-05T13:35:34.968Z,57.33
2023-03-05T13:38:40.885Z,57.72
2023-03-05T13:44:41.995Z,56.55
2023-03-05T13:47:15.812Z,57.92
2023-03-05T13:49:44.233Z,56.31
2023-03-05T13:52:11.800Z,56.61
2023-03-05T13:54:38.531Z,58.64
2023-03-05T13:57:06.862Z,54.63
2023-03-05T13:59:39.138Z,56.85
2023-03-05T14:02:20.736Z,57.42
2023-03-05T14:04:48.134Z,56.08
2023-03-05T14:07:20.882Z,56.89
2023-03-05T14:09:50.053Z,56.48
2023-03-05T14:12:30.368Z,57.46
2023-03-05T14:14:59.418Z,57.48
2023-03-05T14:17:44.898Z,55.49
2023-03-05T14:20:11.253Z,56.22
2023-03-05T14:22:40.310Z,55.42
2023-03-05T14:25:25.556Z,56.37
2023-03-05T14:27:52.198Z,55.34
2023-03-05T14:30:21.006Z,58.51
2023-03-05T14:32:48.678Z,54.40
2023-03-05T14:35:26.822Z,56.58
2023-03-05T14:37:56.835Z,60.21
2023-03-05T14:40:33.016Z,58.85
2023-03-05T14:43:06.465Z,60.32
2023-03-05T14:45:36.253Z,60.03
2023-03-05T14:48:08.147Z,61.30
2023-03-05T14:50:56.465Z,61.97
2023-03-05T14:53:28.010Z,63.09
2023-03-05T14:55:56.893Z,62.59
2023-03-05T14:58:27.537Z,62.83
2023-03-05T15:00:55.567Z,63.25
2023-03-05T15:03:22.772Z,63.88
2023-03-05T15:05:52.499Z,62.37
2023-03-05T15:08:32.269Z,65.07
2023-03-05T15:10:59.834Z,65.54
2023-03-05T15:13:26.724Z,66.12
2023-03-05T15:15:53.862Z,65.07
2023-03-05T15:18:22.433Z,64.90
2023-03-05T15:20:49.481Z,63.69
2023-03-05T15:23:16.183Z,64.11
2023-03-05T15:25:42.779Z,64.87
2023-03-05T15:28:09.314Z,67.14
2023-03-05T15:30:39.544Z,67.69
2023-03-05T15:33:09.640Z,66.00
2023-03-05T15:35:36.367Z,66.86
2023-03-05T15:38:03.225Z,66.21
2023-03-05T15:40:29.994Z,67.63
2023-03-05T15:42:57.742Z,65.59
2023-03-05T15:45:24.925Z,66.58
2023-03-05T15:47:52.730Z,67.44
2023-03-05T15:50:21.320Z,67.20
2023-03-05T15:52:48.367Z,66.62
2023-03-05T15:55:14.904Z,67.59
2023-03-05T15:57:47.570Z,67.62
2023-03-05T16:00:16.376Z,67.82
2023-03-05T16:02:44.562Z,67.89
2023-03-05T16:05:11.307Z,67.89
2023-03-05T16:07:39.163Z,68.29
2023-03-05T16:10:06.315Z,68.58
2023-03-05T16:12:43.090Z,69.72
2023-03-05T16:15:16.124Z,70.62
2023-03-05T16:17:45.466Z,71.24
2023-03-05T16:20:12.659Z,71.68
2023-03-05T16:22:39.246Z,71.37
2023-03-05T16:25:06.331Z,71.17
2023-03-05T16:27:32.820Z,72.19
2023-03-05T16:29:59.389Z,71.77
2023-03-05T16:32:25.950Z,71.43
2023-03-05T16:34:52.484Z,73.82
2023-03-05T16:37:21.321Z,73.35
2023-03-05T16:39:58.178Z,73.55
2023-03-05T16:42:24.614Z,73.55
2023-03-05T16:44:56.367Z,72.81
2023-03-05T16:47:25.931Z,72.72
2023-03-05T16:49:52.504Z,71.99
2023-03-05T16:52:19.928Z,73.45
2023-03-05T16:54:47.591Z,73.13
2023-03-05T16:57:17.427Z,72.68
2023-03-05T16:59:44.657Z,73.87
2023-03-05T17:02:13.224Z,73.55
2023-03-05T17:04:39.899Z,73.55
2023-03-05T17:07:06.931Z,72.94
2023-03-05T17:09:33.791Z,72.48
2023-03-05T17:12:00.522Z,73.46
2023-03-05T17:14:27.138Z,73.17
2023-03-05T17:16:58.605Z,73.16
2023-03-05T17:19:25.089Z,73.23
2023-03-05T17:21:52.334Z,74.10
2023-03-05T17:24:22.261Z,75.19
2023-03-05T17:26:49.768Z,74.55
2023-03-05T17:29:16.527Z,73.87
2023-03-05T17:31:43.343Z,74.48
2023-03-05T17:34:10.180Z,75.70
2023-03-05T17:36:42.809Z,75.72
2023-03-05T17:39:09.282Z,74.87
2023-03-05T17:41:35.844Z,75.57
2023-03-05T17:44:02.286Z,75.61
2023-03-05T17:46:28.914Z,75.91
2023-03-05T17:48:55.338Z,75.25
2023-03-05T17:51:21.836Z,75.21
2023-03-05T17:53:48.261Z,75.38
2023-03-05T17:56:22.070Z,75.36
2023-03-05T17:58:49.639Z,75.98
2023-03-05T18:01:29.368Z,75.47
2023-03-05T18:03:56.983Z,75.58
2023-03-05T18:06:23.666Z,75.64
2023-03-05T18:12:23.665Z,77.29
2023-03-05T18:14:50.273Z,77.26
2023-03-05T18:17:19.533Z,76.60
2023-03-05T18:19:46.219Z,76.40
2023-03-05T18:22:14.806Z,77.11
2023-03-05T18:24:41.246Z,77.15
2023-03-05T18:27:20.818Z,78.00
2023-03-05T18:29:47.346Z,77.78
2023-03-05T18:32:16.113Z,78.05
2023-03-05T18:34:42.584Z,77.62
2023-03-05T18:37:09.091Z,77.50
2023-03-05T18:39:36.727Z,77.75
2023-03-05T18:42:03.471Z,78.00
2023-03-05T18:44:30.051Z,77.79
2023-03-05T18:46:58.668Z,77.67
2023-03-05T18:49:29.829Z,78.72
2023-03-05T18:51:59.646Z,79.04
2023-03-05T18:54:26.307Z,78.69
2023-03-05T18:56:52.761Z,79.22
2023-03-05T18:59:19.224Z,79.24
2023-03-05T19:01:45.759Z,79.29
2023-03-05T19:04:12.330Z,78.84
2023-03-05T19:06:38.812Z,78.08
2023-03-05T19:09:12.129Z,79.04
2023-03-05T19:11:38.606Z,79.40
2023-03-05T19:14:05.121Z,79.25
2023-03-05T19:16:38.358Z,79.74
2023-03-05T19:19:20.552Z,80.85
2023-03-05T19:22:04.903Z,81.13
2023-03-05T19:24:31.663Z,81.27
2023-03-05T19:27:01.068Z,81.34
2023-03-05T19:29:33.149Z,81.21
2023-03-05T19:31:59.749Z,80.74
2023-03-05T19:34:28.614Z,80.78
2023-03-05T19:36:55.100Z,81.01
2023-03-05T19:39:22.729Z,81.38
2023-03-05T19:41:49.306Z,81.09
2023-03-05T19:44:16.241Z,80.78
2023-03-05T19:46:43.609Z,79.97
2023-03-05T19:49:10.727Z,80.22
2023-03-05T19:51:37.255Z,80.62
2023-03-05T19:54:06.290Z,80.35
2023-03-05T19:56:32.886Z,80.47
2023-03-05T19:58:59.237Z,80.74
2023-03-05T20:01:41.554Z,81.50
2023-03-05T20:04:11.745Z,81.24
2023-03-05T20:06:38.392Z,81.64
2023-03-05T20:09:07.536Z,81.54
2023-03-05T20:11:36.002Z,82.17
2023-03-05T20:14:02.573Z,82.21
2023-03-05T20:16:32.884Z,81.53
2023-03-05T20:18:59.822Z,81.94
2023-03-05T20:21:36.242Z,82.69
2023-03-05T20:24:08.517Z,82.36
2023-03-05T20:26:38.422Z,83.22
2023-03-05T21:13:25.585Z,86.66
2023-03-05T21:15:52.641Z,87.60
2023-03-05T21:18:28.254Z,87.63
2023-03-05T21:20:54.903Z,86.99
2023-03-05T21:23:21.326Z,86.84
2023-03-05T21:25:47.999Z,87.56
2023-03-05T21:28:18.713Z,88.40
2023-03-05T21:30:52.004Z,89.55
2023-03-05T21:33:22.302Z,88.93
2023-03-05T21:35:52.624Z,89.25
2023-03-05T21:38:39.440Z,89.25
2023-03-05T21:41:06.373Z,89.42
2023-03-05T21:43:42.761Z,90.62
2023-03-05T21:46:11.055Z,90.74
2023-03-05T21:48:38.272Z,90.99
2023-03-05T21:51:08.870Z,91.36
2023-03-05T21:53:35.766Z,91.11
2023-03-05T21:56:21.027Z,92.05
2023-03-05T21:58:47.588Z,91.85
2023-03-05T22:01:19.449Z,92.04
2023-03-05T22:03:46.144Z,91.46
2023-03-05T22:06:13.205Z,91.95
2023-03-05T22:08:39.695Z,93.05
2023-03-05T22:11:10.805Z,93.13
2023-03-05T22:13:38.113Z,94.09
2023-03-05T22:16:05.528Z,93.28
2023-03-05T22:18:33.377Z,94.13
2023-03-05T22:21:00.154Z,93.75
2023-03-05T22:23:46.336Z,93.16
2023-03-05T22:26:12.829Z,93.89
2023-03-05T22:28:39.462Z,94.01
2023-03-05T22:31:06.212Z,93.99
2023-03-05T22:33:32.734Z,94.61
2023-03-05T22:35:59.332Z,94.76
2023-03-05T22:38:25.908Z,95.19
2023-03-05T22:40:53.063Z,95.33
2023-03-05T22:43:20.191Z,95.73
2023-03-05T22:45:46.743Z,95.93
2023-03-05T22:48:13.272Z,95.25
2023-03-05T22:50:41.071Z,96.90
2023-03-05T22:53:08.156Z,97.45
2023-03-05T22:55:34.782Z,96.22
2023-03-05T22:58:01.241Z,96.62
2023-03-05T23:00:27.781Z,96.73
2023-03-05T23:02:54.596Z,96.98
2023-03-05T23:05:21.557Z,96.96
2023-03-05T23:07:48.148Z,96.11
2023-03-05T23:10:19.622Z,95.75
2023-03-05T23:12:53.400Z,97.14
2023-03-05T23:15:30.103Z,97.75
2023-03-05T23:17:57.204Z,97.37
2023-03-05T23:20:27.239Z,97.56
2023-03-05T23:22:56.050Z,98.15
2023-03-05T23:25:29.524Z,97.62
2023-03-05T23:27:58.119Z,98.12
2023-03-05T23:30:25.972Z,97.04
2023-03-05T23:32:58.210Z,97.67
2023-03-05T23:35:33.916Z,97.41
2023-03-05T23:38:05.026Z,98.25
2023-03-05T23:40:37.252Z,98.14
2023-03-05T23:43:04.676Z,97.57
2023-03-05T23:45:32.470Z,97.30
2023-03-05T23:47:59.378Z,97.29
2023-03-05T23:50:34.963Z,97.60
2023-03-05T23:53:02.462Z,97.33
2023-03-05T23:55:35.429Z,97.04
2023-03-05T23:58:09.276Z,96.85
